Time;durP1;ratioP1;P1;durP2;ratioP2;P2;SDS_P1;SDS_P2;PMS_P1;PMS_P2;Temp;Humidity;BMP_temperature;BMP_pressure;BME280_temperature;BME280_humidity;BME280_pressure;Samples;Min_cycle;Max_cycle;Signal;HPM_P1;HPM_P2
2023/08/16 00:00:42;;;;;;;21.33;19.07;;;19.50;99.90;;;;;;4960293;29;20463;-62
2023/08/16 00:03:09;;;;;;;20.00;18.23;;;19.40;99.90;;;;;;4959849;28;20462;-61
2023/08/16 00:05:37;;;;;;;20.50;18.50;;;19.40;99.90;;;;;;4960081;29;20943;-62
2023/08/16 00:08:04;;;;;;;20.67;18.77;;;19.40;99.90;;;;;;4964526;28;20496;-61
2023/08/16 00:10:32;;;;;;;20.83;18.83;;;19.40;99.90;;;;;;4979540;28;20637;-62
2023/08/16 00:13:00;;;;;;;20.60;18.80;;;19.30;99.90;;;;;;4979380;28;20934;-61
2023/08/16 00:15:28;;;;;;;20.60;18.60;;;19.40;99.90;;;;;;4965506;28;20503;-61
2023/08/16 00:17:55;;;;;;;22.03;19.80;;;19.40;99.90;;;;;;4960081;29;20544;-60
2023/08/16 00:20:26;;;;;;;22.33;20.00;;;19.40;99.90;;;;;;4976921;28;20534;-61
2023/08/16 00:22:54;;;;;;;22.33;20.13;;;19.40;99.90;;;;;;4979399;28;20541;-61
2023/08/16 00:25:21;;;;;;;22.83;19.97;;;19.40;99.90;;;;;;4979440;28;20516;-61
2023/08/16 00:27:48;;;;;;;22.00;19.70;;;19.30;99.90;;;;;;4978805;28;20489;-60
2023/08/16 00:30:17;;;;;;;22.83;20.67;;;19.30;99.90;;;;;;4976561;28;20556;-61
2023/08/16 00:32:44;;;;;;;24.87;21.70;;;19.20;99.90;;;;;;4964004;28;20470;-60
2023/08/16 00:35:11;;;;;;;21.77;19.67;;;19.20;99.90;;;;;;4959759;28;20931;-61
2023/08/16 00:37:39;;;;;;;24.83;21.77;;;19.20;99.90;;;;;;4959239;29;20560;-60
2023/08/16 00:40:08;;;;;;;22.13;20.00;;;19.20;99.90;;;;;;4959149;29;20510;-60
2023/08/16 00:42:35;;;;;;;22.00;20.07;;;19.10;99.90;;;;;;4959578;28;20477;-60
2023/08/16 00:45:03;;;;;;;23.40;21.27;;;19.10;99.90;;;;;;4959546;29;20955;-61
2023/08/16 00:47:31;;;;;;;24.13;21.90;;;19.00;99.90;;;;;;4959860;28;20471;-61
2023/08/16 00:49:58;;;;;;;21.97;19.87;;;19.10;99.90;;;;;;4959867;28;20488;-61
2023/08/16 00:52:26;;;;;;;25.47;21.40;;;19.10;99.90;;;;;;4958920;29;20505;-61
2023/08/16 00:54:53;;;;;;;22.83;20.47;;;19.10;99.90;;;;;;4959434;29;20566;-61
2023/08/16 00:57:22;;;;;;;20.90;19.17;;;19.20;99.90;;;;;;4959077;29;20488;-61
2023/08/16 00:59:49;;;;;;;21.20;18.43;;;19.10;99.90;;;;;;4959585;29;20455;-61
2023/08/16 01:02:19;;;;;;;23.10;20.90;;;19.20;99.90;;;;;;4959093;29;20549;-61
2023/08/16 01:04:48;;;;;;;20.43;18.70;;;19.10;99.90;;;;;;4959183;29;20463;-61
2023/08/16 01:07:15;;;;;;;23.13;20.77;;;19.10;99.90;;;;;;4959173;29;20509;-61
2023/08/16 01:09:43;;;;;;;23.97;20.47;;;19.00;99.90;;;;;;4959147;29;20593;-61
2023/08/16 01:12:19;;;;;;;24.20;21.83;;;18.90;99.90;;;;;;4958649;29;20481;-61
2023/08/16 01:14:51;;;;;;;22.83;20.83;;;18.90;99.90;;;;;;4959347;28;20470;-61
2023/08/16 01:17:23;;;;;;;22.27;20.27;;;18.80;99.90;;;;;;4959048;29;20467;-61
2023/08/16 01:19:54;;;;;;;21.83;20.07;;;18.80;99.90;;;;;;4959480;28;20522;-61
2023/08/16 01:22:32;;;;;;;25.00;20.07;;;18.70;99.90;;;;;;4958657;29;20468;-61
2023/08/16 01:25:11;;;;;;;22.00;19.93;;;18.70;99.90;;;;;;4958792;29;20553;-61
2023/08/16 01:27:40;;;;;;;21.30;19.37;;;18.70;99.90;;;;;;4959182;28;20827;-61
2023/08/16 01:30:09;;;;;;;22.40;20.30;;;18.70;99.90;;;;;;4958779;28;20494;-61
2023/08/16 01:32:38;;;;;;;21.47;19.50;;;18.60;99.90;;;;;;4964595;29;20556;-61
2023/08/16 01:35:05;;;;;;;23.30;21.03;;;18.50;99.90;;;;;;4965154;28;20513;-61
2023/08/16 01:37:33;;;;;;;25.40;22.93;;;18.50;99.90;;;;;;4965406;28;20462;-61
2023/08/16 01:40:04;;;;;;;23.50;21.20;;;18.50;99.90;;;;;;4964330;28;20437;-61
2023/08/16 01:42:36;;;;;;;25.40;22.27;;;18.50;99.90;;;;;;4964948;29;20564;-61
2023/08/16 01:45:07;;;;;;;23.00;20.93;;;18.40;99.90;;;;;;4965147;28;20470;-61
2023/08/16 01:47:37;;;;;;;21.93;19.93;;;18.40;99.90;;;;;;4965655;29;20489;-61
2023/08/16 01:50:06;;;;;;;23.10;20.97;;;18.30;99.90;;;;;;4979032;28;20934;-62
2023/08/16 01:52:35;;;;;;;23.33;20.87;;;18.30;99.90;;;;;;4964504;28;20581;-61
2023/08/16 01:55:03;;;;;;;22.83;20.77;;;18.30;99.90;;;;;;4965204;28;20953;-61
2023/08/16 01:57:30;;;;;;;23.50;21.20;;;18.30;99.90;;;;;;4965241;29;20462;-61
2023/08/16 01:59:57;;;;;;;25.50;23.00;;;18.30;99.90;;;;;;4964937;28;20462;-61
2023/08/16 02:02:25;;;;;;;24.70;22.47;;;18.20;99.90;;;;;;4964944;29;20846;-61
2023/08/16 02:04:53;;;;;;;25.67;23.13;;;18.20;99.90;;;;;;4965040;28;20617;-61
2023/08/16 02:07:21;;;;;;;24.67;22.50;;;18.20;99.90;;;;;;4965181;28;20466;-61
2023/08/16 02:09:48;;;;;;;24.53;22.10;;;18.20;99.90;;;;;;4964974;28;20498;-61
2023/08/16 02:12:16;;;;;;;23.97;21.77;;;18.20;99.90;;;;;;4964834;28;20812;-61
2023/08/16 02:14:43;;;;;;;23.50;21.30;;;18.10;99.90;;;;;;4964549;28;20470;-61
2023/08/16 02:17:11;;;;;;;24.50;21.90;;;18.10;99.90;;;;;;4965225;29;20767;-61
2023/08/16 02:19:41;;;;;;;25.07;22.67;;;18.10;99.90;;;;;;4965105;28;20469;-61
2023/08/16 02:22:08;;;;;;;25.20;22.73;;;18.10;99.90;;;;;;4964378;29;20525;-61
2023/08/16 02:24:35;;;;;;;26.00;23.40;;;18.00;99.90;;;;;;4964412;28;20498;-61
2023/08/16 02:27:03;;;;;;;24.60;22.20;;;18.00;99.90;;;;;;4964861;28;20564;-62
2023/08/16 02:29:30;;;;;;;25.17;22.30;;;18.00;99.90;;;;;;4968610;28;20953;-61
2023/08/16 02:31:57;;;;;;;24.63;20.80;;;17.90;99.90;;;;;;4984505;28;20493;-62
2023/08/16 02:34:24;;;;;;;24.57;22.47;;;17.90;99.90;;;;;;4983314;28;20580;-62
2023/08/16 02:36:53;;;;;;;23.13;20.97;;;17.90;99.90;;;;;;4984246;28;20564;-62
2023/08/16 02:39:20;;;;;;;24.67;22.33;;;17.90;99.90;;;;;;4984055;28;20512;-61
2023/08/16 02:41:47;;;;;;;24.93;22.57;;;17.80;99.90;;;;;;4983848;28;20493;-62
2023/08/16 02:44:15;;;;;;;24.10;22.00;;;17.80;99.90;;;;;;4980875;28;20493;-62
2023/08/16 02:46:42;;;;;;;23.37;21.23;;;17.80;99.90;;;;;;4980795;28;20468;-61
2023/08/16 02:49:09;;;;;;;25.03;22.37;;;17.80;99.90;;;;;;4980945;28;20493;-61
2023/08/16 02:51:36;;;;;;;25.53;23.20;;;17.70;99.90;;;;;;4981093;28;20466;-62
2023/08/16 02:54:06;;;;;;;25.33;22.63;;;17.70;99.90;;;;;;4980756;28;20620;-61
2023/08/16 02:56:33;;;;;;;24.10;21.60;;;17.70;99.90;;;;;;4964395;28;20525;-61
2023/08/16 02:59:00;;;;;;;24.53;22.13;;;17.70;99.90;;;;;;4961640;29;20833;-61
2023/08/16 03:01:27;;;;;;;24.23;21.97;;;17.70;99.90;;;;;;4961754;29;20553;-62
2023/08/16 03:03:55;;;;;;;24.37;21.90;;;17.60;99.90;;;;;;4961460;29;20467;-61
2023/08/16 03:06:22;;;;;;;23.70;21.40;;;17.60;99.90;;;;;;4960986;29;20469;-61
2023/08/16 03:08:49;;;;;;;22.37;20.40;;;17.60;99.90;;;;;;4961591;28;20494;-62
2023/08/16 03:11:18;;;;;;;24.43;22.07;;;17.60;99.90;;;;;;4960698;29;20469;-62
2023/08/16 03:13:45;;;;;;;24.70;22.10;;;17.60;99.90;;;;;;4961517;28;20518;-61
2023/08/16 03:16:12;;;;;;;24.27;21.97;;;17.60;99.90;;;;;;4961253;29;20466;-61
2023/08/16 03:18:39;;;;;;;23.80;21.40;;;17.60;99.90;;;;;;4960983;29;20959;-61
2023/08/16 03:21:06;;;;;;;23.10;20.80;;;17.60;99.90;;;;;;4960959;29;20502;-62
2023/08/16 03:23:33;;;;;;;24.70;22.07;;;17.60;99.90;;;;;;4961975;28;20764;-61
2023/08/16 03:26:00;;;;;;;25.87;23.37;;;17.60;99.90;;;;;;4976787;28;20470;-61
2023/08/16 03:28:30;;;;;;;25.17;22.67;;;17.60;99.90;;;;;;4979888;28;20556;-62
2023/08/16 03:30:57;;;;;;;23.07;20.90;;;17.60;99.90;;;;;;4980073;28;20465;-61
2023/08/16 03:33:24;;;;;;;26.67;23.90;;;17.60;99.90;;;;;;4980271;28;20898;-61
2023/08/16 03:35:52;;;;;;;25.53;22.80;;;17.60;99.90;;;;;;4978974;28;20458;-62
2023/08/16 03:38:19;;;;;;;24.80;22.40;;;17.60;99.90;;;;;;4979720;28;20548;-61
2023/08/16 03:40:46;;;;;;;26.97;24.27;;;17.60;99.90;;;;;;4964779;28;20490;-61
2023/08/16 03:43:13;;;;;;;27.53;24.63;;;17.60;99.90;;;;;;4960818;29;20561;-62
2023/08/16 03:45:42;;;;;;;26.50;23.70;;;17.60;99.90;;;;;;4962328;28;20468;-62
2023/08/16 03:48:09;;;;;;;27.47;24.63;;;17.70;99.90;;;;;;4979428;28;20556;-61
2023/08/16 03:50:36;;;;;;;24.20;21.73;;;17.70;99.90;;;;;;4979548;28;20494;-62
2023/08/16 03:53:04;;;;;;;27.27;24.60;;;17.70;99.90;;;;;;4979273;28;20489;-61
2023/08/16 03:55:31;;;;;;;28.37;25.17;;;17.70;99.90;;;;;;4979591;28;20565;-61
2023/08/16 03:57:58;;;;;;;27.37;24.63;;;17.70;99.90;;;;;;4979097;28;20971;-61
2023/08/16 04:00:26;;;;;;;29.23;26.37;;;17.70;99.90;;;;;;4979372;28;20458;-62
2023/08/16 04:02:54;;;;;;;29.93;23.87;;;17.70;99.90;;;;;;4979638;28;20826;-61
2023/08/16 04:05:22;;;;;;;26.43;23.83;;;17.80;99.90;;;;;;4979588;28;20468;-61
2023/08/16 04:07:49;;;;;;;27.90;25.10;;;17.70;99.90;;;;;;4979528;28;20465;-61
2023/08/16 04:10:16;;;;;;;27.53;25.03;;;17.80;99.90;;;;;;4979167;28;20965;-61
2023/08/16 04:12:43;;;;;;;27.07;24.17;;;17.80;99.90;;;;;;4979445;28;20830;-61
2023/08/16 04:15:11;;;;;;;28.40;24.23;;;17.80;99.90;;;;;;4975277;28;20466;-59
2023/08/16 04:17:38;;;;;;;29.03;24.67;;;17.80;99.90;;;;;;4971241;28;20900;-61
2023/08/16 04:20:08;;;;;;;29.93;26.43;;;17.80;99.90;;;;;;4966818;28;20553;-61
2023/08/16 04:22:35;;;;;;;30.60;27.47;;;17.80;99.90;;;;;;4978818;28;20540;-61
2023/08/16 04:25:03;;;;;;;30.53;27.47;;;17.80;99.90;;;;;;4978746;28;20552;-61
2023/08/16 04:27:30;;;;;;;32.37;29.23;;;17.80;99.90;;;;;;4977795;28;20983;-61
2023/08/16 04:29:57;;;;;;;34.07;30.73;;;17.80;99.90;;;;;;4967940;28;20487;-61
2023/08/16 04:32:25;;;;;;;33.23;29.67;;;17.80;99.90;;;;;;4967479;28;20541;-61
2023/08/16 04:34:52;;;;;;;32.77;29.43;;;17.80;99.90;;;;;;4970100;28;20557;-61
2023/08/16 04:37:20;;;;;;;33.20;30.00;;;17.80;99.90;;;;;;4957905;28;20562;-61
2023/08/16 04:39:48;;;;;;;33.87;30.33;;;17.80;99.90;;;;;;4957218;28;20459;-62
2023/08/16 04:42:16;;;;;;;38.97;34.00;;;17.80;99.90;;;;;;4957516;28;20478;-60
2023/08/16 04:44:43;;;;;;;36.47;32.67;;;17.90;99.90;;;;;;4962738;28;20467;-61
2023/08/16 04:47:10;;;;;;;46.30;35.43;;;17.90;99.90;;;;;;4959140;29;20462;-62
2023/08/16 04:49:38;;;;;;;44.20;37.13;;;18.00;99.90;;;;;;4959386;29;21007;-61
2023/08/16 04:52:06;;;;;;;41.73;37.13;;;18.00;99.90;;;;;;4959286;28;20473;-62
2023/08/16 04:54:34;;;;;;;39.50;35.47;;;18.10;99.90;;;;;;4958946;28;20469;-61
2023/08/16 04:57:03;;;;;;;37.27;33.40;;;18.10;99.90;;;;;;4959027;29;20466;-61
2023/08/16 04:59:30;;;;;;;39.00;34.27;;;18.20;99.90;;;;;;4959090;28;20467;-61
2023/08/16 05:01:57;;;;;;;40.30;35.87;;;18.20;99.90;;;;;;4964621;28;20508;-61
2023/08/16 05:04:25;;;;;;;37.47;33.27;;;18.20;99.90;;;;;;4978496;28;20903;-61
2023/08/16 05:06:52;;;;;;;40.10;35.80;;;18.30;99.90;;;;;;4964013;28;20586;-61
2023/08/16 05:09:19;;;;;;;36.17;32.30;;;18.30;99.90;;;;;;4959233;29;20534;-61
2023/08/16 05:11:48;;;;;;;39.57;34.50;;;18.30;99.90;;;;;;4964233;28;20457;-59
2023/08/16 05:14:15;;;;;;;41.10;32.70;;;18.30;99.90;;;;;;4958575;28;20587;-61
2023/08/16 05:16:42;;;;;;;34.93;31.33;;;18.30;99.90;;;;;;4959056;29;20827;-61
2023/08/16 05:19:10;;;;;;;38.50;32.17;;;18.40;99.90;;;;;;4959179;29;20568;-62
2023/08/16 05:21:37;;;;;;;41.57;33.73;;;18.40;99.90;;;;;;4962154;28;20552;-61
2023/08/16 05:24:04;;;;;;;36.97;32.10;;;18.40;99.90;;;;;;4958560;29;20474;-60
2023/08/16 05:26:32;;;;;;;35.23;31.70;;;18.30;99.90;;;;;;4958904;29;20463;-61
2023/08/16 05:29:00;;;;;;;36.40;32.60;;;18.20;99.90;;;;;;4966875;28;20765;-61
2023/08/16 05:31:28;;;;;;;35.90;32.10;;;18.30;99.90;;;;;;4968599;28;20936;-60
2023/08/16 05:33:55;;;;;;;37.83;33.73;;;18.30;99.90;;;;;;4957982;28;20506;-60
2023/08/16 05:36:22;;;;;;;37.13;33.33;;;18.30;99.90;;;;;;4957544;28;20558;-60
2023/08/16 05:38:49;;;;;;;37.40;33.57;;;18.20;99.90;;;;;;4974128;28;20474;-61
2023/08/16 05:41:16;;;;;;;36.20;32.30;;;18.20;99.90;;;;;;4976621;28;20484;-58
2023/08/16 05:43:44;;;;;;;38.60;33.80;;;18.10;99.90;;;;;;4960761;28;20952;-65
2023/08/16 05:46:12;;;;;;;36.30;31.97;;;18.10;99.90;;;;;;4958398;29;20999;-65
2023/08/16 05:48:39;;;;;;;36.30;32.40;;;18.10;99.90;;;;;;4965285;28;20560;-65
2023/08/16 05:51:07;;;;;;;38.50;33.50;;;18.10;99.90;;;;;;4961685;28;20666;-66
2023/08/16 05:53:34;;;;;;;34.93;31.43;;;18.20;99.90;;;;;;4959636;28;20843;-64
2023/08/16 05:56:02;;;;;;;37.97;33.83;;;18.20;99.90;;;;;;4971343;28;20896;-65
2023/08/16 05:58:29;;;;;;;37.30;33.40;;;18.20;99.90;;;;;;4956539;29;20466;-65
2023/08/16 06:00:56;;;;;;;37.40;33.70;;;18.30;99.90;;;;;;4962010;28;20827;-65
2023/08/16 06:03:25;;;;;;;38.93;33.50;;;18.30;99.90;;;;;;4966078;28;20458;-65
2023/08/16 06:05:52;;;;;;;36.60;33.10;;;18.40;99.90;;;;;;4963899;28;20556;-65
2023/08/16 06:08:19;;;;;;;37.20;33.20;;;18.30;99.90;;;;;;4976261;28;20552;-65
2023/08/16 06:10:46;;;;;;;41.20;36.10;;;18.40;99.90;;;;;;4976093;28;20862;-65
2023/08/16 06:13:14;;;;;;;43.50;33.30;;;18.40;99.90;;;;;;4976593;28;20501;-65
2023/08/16 06:15:41;;;;;;;38.40;33.27;;;18.60;99.90;;;;;;4977031;28;20838;-66
2023/08/16 06:18:08;;;;;;;38.17;33.40;;;18.60;99.90;;;;;;4980359;28;20546;-66
2023/08/16 06:20:37;;;;;;;37.40;33.00;;;18.70;99.90;;;;;;4969823;28;20466;-66
2023/08/16 06:23:04;;;;;;;39.13;33.73;;;18.70;99.90;;;;;;4962294;29;20466;-65
2023/08/16 06:25:31;;;;;;;37.67;33.77;;;18.60;99.90;;;;;;4961524;28;20605;-65
2023/08/16 06:27:59;;;;;;;35.80;31.97;;;18.60;99.90;;;;;;4970306;28;20529;-64
2023/08/16 06:30:26;;;;;;;38.30;34.20;;;18.80;99.90;;;;;;4959703;28;20504;-65
2023/08/16 06:32:53;;;;;;;35.47;31.63;;;18.90;99.90;;;;;;4960752;29;20983;-66
2023/08/16 06:35:20;;;;;;;36.73;31.50;;;18.90;99.90;;;;;;4960229;29;20470;-65
2023/08/16 06:37:49;;;;;;;34.93;31.30;;;18.80;99.90;;;;;;4961417;28;20475;-66
2023/08/16 06:40:17;;;;;;;34.10;30.60;;;18.70;99.90;;;;;;4960198;29;20554;-65
2023/08/16 06:42:44;;;;;;;35.63;32.13;;;18.60;99.90;;;;;;4960687;28;20462;-66
2023/08/16 06:45:11;;;;;;;35.37;31.87;;;18.40;99.90;;;;;;4963282;28;20769;-66
2023/08/16 06:47:38;;;;;;;34.07;30.83;;;18.60;99.90;;;;;;4966955;28;20469;-66
2023/08/16 06:50:06;;;;;;;33.87;28.70;;;18.70;99.90;;;;;;4978622;28;20977;-66
2023/08/16 06:52:34;;;;;;;31.37;28.37;;;18.70;99.90;;;;;;4978387;28;21030;-67
2023/08/16 06:55:02;;;;;;;33.57;30.47;;;18.70;99.90;;;;;;4961629;29;20550;-66
2023/08/16 06:57:30;;;;;;;30.50;27.33;;;18.80;99.90;;;;;;4961820;28;20975;-66
2023/08/16 06:59:57;;;;;;;29.00;26.30;;;19.00;99.90;;;;;;4979199;28;20637;-67
2023/08/16 07:02:24;;;;;;;29.23;26.40;;;19.10;99.90;;;;;;4972125;28;20506;-66
2023/08/16 07:04:52;;;;;;;26.67;24.17;;;18.90;99.90;;;;;;4961312;29;20459;-68
2023/08/16 07:07:19;;;;;;;27.10;24.60;;;19.00;99.90;;;;;;4960519;28;20462;-67
2023/08/16 07:09:46;;;;;;;27.07;24.57;;;18.90;99.90;;;;;;4960574;28;20471;-66
2023/08/16 07:12:15;;;;;;;28.93;25.90;;;19.00;99.90;;;;;;4959726;28;20513;-67
2023/08/16 07:14:42;;;;;;;28.20;25.53;;;19.20;99.90;;;;;;4959786;28;20466;-67
2023/08/16 07:17:10;;;;;;;29.03;26.20;;;19.20;99.90;;;;;;4959344;29;20463;-66
2023/08/16 07:19:38;;;;;;;29.03;24.93;;;19.20;99.90;;;;;;4959318;28;20968;-68
2023/08/16 07:22:05;;;;;;;30.30;27.20;;;19.10;99.90;;;;;;4967523;28;20470;-68
2023/08/16 07:24:33;;;;;;;30.30;27.63;;;19.10;99.90;;;;;;4978503;28;20545;-69
2023/08/16 07:27:00;;;;;;;29.27;26.77;;;19.20;99.90;;;;;;4980029;28;20504;-69
2023/08/16 07:29:28;;;;;;;27.60;25.20;;;19.40;99.90;;;;;;4978985;28;20799;-67
2023/08/16 07:31:56;;;;;;;29.40;26.30;;;19.40;99.90;;;;;;4973773;28;20552;-68
2023/08/16 07:34:23;;;;;;;29.37;26.77;;;19.40;99.90;;;;;;4973401;28;20473;-69
2023/08/16 07:36:50;;;;;;;31.30;28.10;;;19.50;99.90;;;;;;4966183;28;20515;-69
2023/08/16 07:39:17;;;;;;;28.97;26.27;;;19.20;99.90;;;;;;4959153;28;20533;-69
2023/08/16 07:41:45;;;;;;;35.03;31.50;;;19.20;99.90;;;;;;4961668;28;20502;-68
2023/08/16 07:44:12;;;;;;;32.23;29.30;;;19.20;99.90;;;;;;4958434;28;20549;-68
2023/08/16 07:46:40;;;;;;;33.67;30.70;;;19.00;99.90;;;;;;4958396;28;20727;-68
2023/08/16 07:49:07;;;;;;;35.40;32.30;;;19.10;99.90;;;;;;4960083;29;20838;-68
2023/08/16 07:51:35;;;;;;;38.10;34.23;;;19.00;99.90;;;;;;4959760;28;20986;-67
2023/08/16 07:54:02;;;;;;;38.43;34.80;;;19.00;99.90;;;;;;4958388;28;20957;-68
2023/08/16 07:56:29;;;;;;;37.67;34.27;;;19.00;99.90;;;;;;4960170;29;20498;-68
2023/08/16 07:58:56;;;;;;;39.47;35.60;;;18.90;99.90;;;;;;4969730;28;20476;-68
2023/08/16 08:01:24;;;;;;;37.37;33.77;;;19.10;99.90;;;;;;4979870;28;20815;-69
2023/08/16 08:03:52;;;;;;;37.27;33.67;;;19.10;99.90;;;;;;4979651;28;20755;-68
2023/08/16 08:06:19;;;;;;;35.20;31.50;;;19.00;99.90;;;;;;4979840;28;20537;-68
2023/08/16 08:08:46;;;;;;;36.50;32.93;;;19.00;99.90;;;;;;4979239;28;20485;-67
2023/08/16 08:11:14;;;;;;;38.00;34.40;;;19.10;99.90;;;;;;4979218;28;20529;-67
2023/08/16 08:13:41;;;;;;;35.77;32.30;;;19.20;99.90;;;;;;4979324;28;20525;-67
2023/08/16 08:16:09;;;;;;;33.97;30.30;;;19.30;99.90;;;;;;4979106;28;20470;-67
2023/08/16 08:18:36;;;;;;;32.73;29.30;;;19.20;99.90;;;;;;4979563;28;20462;-68
2023/08/16 08:21:04;;;;;;;31.97;28.70;;;19.20;99.90;;;;;;4979010;28;20462;-68
2023/08/16 08:23:32;;;;;;;34.00;30.50;;;19.20;99.90;;;;;;4978149;28;20462;-66
2023/08/16 08:25:59;;;;;;;33.50;29.87;;;19.20;99.90;;;;;;4979200;28;20894;-67
2023/08/16 08:28:27;;;;;;;33.17;30.07;;;19.30;99.90;;;;;;4978204;28;20462;-66
2023/08/16 08:30:54;;;;;;;32.53;29.03;;;19.40;99.90;;;;;;4959756;28;20605;-67
2023/08/16 08:33:21;;;;;;;32.33;29.03;;;19.50;99.90;;;;;;4959646;29;20883;-66
2023/08/16 08:35:50;;;;;;;32.20;29.03;;;19.50;99.90;;;;;;4959838;29;20550;-66
2023/08/16 08:38:18;;;;;;;35.40;31.60;;;19.70;99.90;;;;;;4959361;28;20493;-66
2023/08/16 08:40:46;;;;;;;39.60;30.70;;;19.60;99.90;;;;;;4958889;28;20447;-66
2023/08/16 08:43:18;;;;;;;36.27;32.40;;;19.70;99.90;;;;;;4959552;28;20463;-66
2023/08/16 08:45:49;;;;;;;34.07;30.30;;;19.70;99.90;;;;;;4959755;28;20553;-65
2023/08/16 08:48:17;;;;;;;39.73;33.90;;;19.70;99.90;;;;;;4959390;29;20796;-66
2023/08/16 08:50:46;;;;;;;36.63;32.93;;;19.60;99.90;;;;;;4965248;28;20486;-66
2023/08/16 08:53:13;;;;;;;39.97;34.07;;;19.60;99.90;;;;;;4965886;28;20505;-66
2023/08/16 08:55:45;;;;;;;37.90;33.73;;;19.70;99.90;;;;;;4978485;28;20922;-65
2023/08/16 08:58:13;;;;;;;37.30;33.50;;;19.80;99.90;;;;;;4971624;28;20477;-66
2023/08/16 09:00:41;;;;;;;39.10;34.90;;;20.00;99.90;;;;;;4959241;28;20848;-66
2023/08/16 09:03:10;;;;;;;38.50;34.40;;;20.10;99.90;;;;;;4975329;28;20474;-65
2023/08/16 09:05:39;;;;;;;39.50;35.27;;;20.20;99.90;;;;;;4960089;28;20509;-66
2023/08/16 09:08:06;;;;;;;38.40;34.00;;;20.10;99.90;;;;;;4958651;28;20467;-65
2023/08/16 09:10:37;;;;;;;38.07;34.30;;;20.30;99.90;;;;;;4962781;28;20628;-65
2023/08/16 09:13:09;;;;;;;36.57;32.97;;;20.20;99.90;;;;;;4959137;28;20475;-66
2023/08/16 09:15:37;;;;;;;35.07;31.77;;;20.10;99.90;;;;;;4962050;28;20478;-66
2023/08/16 09:18:09;;;;;;;37.13;33.47;;;20.10;99.90;;;;;;4958952;28;20466;-65
2023/08/16 09:20:37;;;;;;;35.30;31.80;;;20.40;99.90;;;;;;4957237;29;20502;-65
2023/08/16 09:23:05;;;;;;;34.63;31.23;;;20.60;99.90;;;;;;4957377;28;20478;-66
2023/08/16 09:25:33;;;;;;;35.87;32.27;;;20.70;99.90;;;;;;4957403;28;20458;-65
2023/08/16 09:28:01;;;;;;;34.30;30.50;;;20.60;99.90;;;;;;4957502;29;20848;-65
2023/08/16 09:30:30;;;;;;;35.83;32.30;;;20.50;99.90;;;;;;4957567;29;20465;-64
2023/08/16 09:32:57;;;;;;;36.67;33.03;;;20.50;99.90;;;;;;4957298;28;20521;-65
2023/08/16 09:35:29;;;;;;;34.23;30.77;;;20.50;99.90;;;;;;4957810;29;20561;-66
2023/08/16 09:37:57;;;;;;;32.53;29.43;;;20.50;99.90;;;;;;4958994;29;20897;-65
2023/08/16 09:40:24;;;;;;;33.50;30.17;;;20.50;99.90;;;;;;4958148;29;20462;-66
2023/08/16 09:42:52;;;;;;;32.33;29.23;;;20.60;99.90;;;;;;4958523;29;20547;-66
2023/08/16 09:45:31;;;;;;;31.63;28.53;;;20.80;99.90;;;;;;4958804;29;20868;-66
2023/08/16 09:48:00;;;;;;;32.27;28.63;;;21.00;99.90;;;;;;4958267;28;20502;-66
2023/08/16 09:50:28;;;;;;;30.83;27.67;;;21.00;99.90;;;;;;4957020;28;20561;-65
2023/08/16 09:52:58;;;;;;;30.43;27.43;;;21.10;99.90;;;;;;4959691;28;20486;-65
2023/08/16 09:55:30;;;;;;;28.57;25.60;;;20.90;99.90;;;;;;4962056;28;20868;-65
2023/08/16 09:57:59;;;;;;;30.77;27.67;;;21.10;99.90;;;;;;4961957;28;20463;-65
2023/08/16 10:00:27;;;;;;;31.13;28.17;;;21.30;99.90;;;;;;4962076;28;20470;-64
2023/08/16 10:02:56;;;;;;;28.53;25.70;;;21.50;99.90;;;;;;4962092;29;20466;-64
2023/08/16 10:05:25;;;;;;;29.37;26.57;;;21.70;99.90;;;;;;4961050;28;20463;-64
2023/08/16 10:07:54;;;;;;;29.93;26.93;;;21.70;99.90;;;;;;4960780;29;20561;-65
2023/08/16 10:10:21;;;;;;;29.50;26.50;;;21.80;99.90;;;;;;4960368;28;20471;-65
2023/08/16 10:12:49;;;;;;;30.57;27.67;;;21.70;99.90;;;;;;4961221;28;20613;-63
2023/08/16 10:15:16;;;;;;;30.03;26.97;;;21.40;99.90;;;;;;4960888;28;20496;-64
2023/08/16 10:17:44;;;;;;;31.00;28.07;;;21.30;1.00;;;;;;4960740;28;20462;-65
2023/08/16 10:20:22;;;;;;;31.87;28.97;;;21.20;1.00;;;;;;4961837;29;20760;-64
2023/08/16 10:22:56;;;;;;;30.60;27.77;;;21.20;99.90;;;;;;4962038;28;20872;-65
2023/08/16 10:25:26;;;;;;;31.13;27.97;;;21.30;1.00;;;;;;4962116;28;20465;-65
2023/08/16 10:27:56;;;;;;;30.90;27.70;;;21.10;99.90;;;;;;4962095;28;20463;-64
2023/08/16 10:30:25;;;;;;;29.27;26.30;;;21.10;27.40;;;;;;4968253;28;20473;-65
2023/08/16 10:32:57;;;;;;;31.80;27.10;;;21.20;99.90;;;;;;4981082;28;20906;-65
2023/08/16 10:35:26;;;;;;;28.70;25.67;;;21.30;99.90;;;;;;4981385;28;20462;-65
2023/08/16 10:37:56;;;;;;;29.60;26.10;;;21.40;99.90;;;;;;4964781;28;20882;-64
2023/08/16 10:40:24;;;;;;;29.23;26.40;;;21.50;99.90;;;;;;4967160;28;20465;-65
2023/08/16 10:42:55;;;;;;;27.50;25.00;;;21.50;99.90;;;;;;4979202;28;20840;-64
2023/08/16 10:45:27;;;;;;;29.53;26.53;;;21.50;53.10;;;;;;4973475;28;20948;-63
2023/08/16 10:47:54;;;;;;;29.60;26.40;;;21.50;99.90;;;;;;4980505;28;20994;-65
2023/08/16 10:50:22;;;;;;;27.80;25.00;;;21.40;99.90;;;;;;4980810;28;20544;-65
2023/08/16 10:52:50;;;;;;;28.13;25.33;;;21.40;99.90;;;;;;4971513;28;20494;-65
2023/08/16 10:55:25;;;;;;;31.83;26.70;;;21.50;99.90;;;;;;4961744;28;20792;-65
2023/08/16 10:57:54;;;;;;;30.30;27.10;;;21.40;99.90;;;;;;4961981;28;20899;-64
2023/08/16 11:00:32;;;;;;;27.33;24.43;;;21.50;99.90;;;;;;4960784;29;20481;-65
2023/08/16 11:03:03;;;;;;;27.17;24.57;;;21.60;99.90;;;;;;4961033;28;20763;-65
2023/08/16 11:05:33;;;;;;;28.90;25.87;;;21.90;99.90;;;;;;4960854;29;20466;-64
2023/08/16 11:08:03;;;;;;;29.10;26.10;;;21.70;1.00;;;;;;4961617;28;20467;-65
2023/08/16 11:10:34;;;;;;;29.07;25.40;;;21.60;93.40;;;;;;4961821;28;20474;-64
2023/08/16 11:13:03;;;;;;;28.37;25.67;;;21.60;14.00;;;;;;4960893;28;21007;-64
2023/08/16 11:15:30;;;;;;;30.13;24.30;;;21.70;83.50;;;;;;4978541;28;20461;-63
2023/08/16 11:17:58;;;;;;;26.07;23.47;;;22.00;94.40;;;;;;4974801;28;20461;-64
2023/08/16 11:20:25;;;;;;;25.17;22.87;;;22.20;22.60;;;;;;4963157;28;20564;-62
2023/08/16 11:22:54;;;;;;;26.53;23.40;;;22.50;1.00;;;;;;4969300;28;20466;-62
2023/08/16 11:25:23;;;;;;;23.70;21.43;;;22.70;1.00;;;;;;4964188;28;20640;-62
2023/08/16 11:27:51;;;;;;;25.30;22.57;;;22.90;1.00;;;;;;4960306;28;20478;-62
2023/08/16 11:30:18;;;;;;;25.87;23.17;;;22.80;99.90;;;;;;4959684;28;20510;-63
2023/08/16 11:32:46;;;;;;;24.63;22.03;;;22.70;99.90;;;;;;4964744;28;21014;-62
2023/08/16 11:35:13;;;;;;;23.83;21.40;;;22.70;1.00;;;;;;4959893;28;20484;-63
2023/08/16 11:37:42;;;;;;;26.80;24.03;;;22.60;1.00;;;;;;4965251;28;20513;-63
2023/08/16 11:40:10;;;;;;;23.53;21.10;;;22.50;99.90;;;;;;4962297;28;20480;-62
2023/08/16 11:42:39;;;;;;;23.37;20.93;;;22.70;1.00;;;;;;4976052;28;20544;-63
2023/08/16 11:45:18;;;;;;;23.03;20.83;;;22.80;99.90;;;;;;4964610;28;20861;-63
2023/08/16 11:47:49;;;;;;;25.40;22.80;;;23.00;99.90;;;;;;4959066;28;20923;-63
2023/08/16 11:50:16;;;;;;;25.13;22.50;;;23.10;99.90;;;;;;4964183;28;20477;-62
2023/08/16 11:52:45;;;;;;;29.97;22.00;;;23.30;99.90;;;;;;4957428;28;20504;-61
2023/08/16 11:55:15;;;;;;;25.83;23.23;;;23.30;99.90;;;;;;4966611;28;20568;-63
2023/08/16 11:57:48;;;;;;;27.57;24.97;;;23.20;99.90;;;;;;4963946;28;20474;-62
2023/08/16 12:00:28;;;;;;;23.97;21.70;;;23.00;99.90;;;;;;4963944;28;20848;-63
2023/08/16 12:02:55;;;;;;;26.97;23.93;;;22.90;99.90;;;;;;4958248;28;20465;-62
2023/08/16 12:05:25;;;;;;;25.27;22.57;;;22.90;99.90;;;;;;4959507;28;20466;-63
2023/08/16 12:07:52;;;;;;;24.67;22.27;;;23.00;99.90;;;;;;4976182;28;20520;-62
2023/08/16 12:10:24;;;;;;;24.87;22.17;;;23.20;99.90;;;;;;4977840;28;20938;-62
2023/08/16 12:12:53;;;;;;;24.77;22.47;;;22.90;99.90;;;;;;4977941;28;20946;-62
2023/08/16 12:15:23;;;;;;;25.60;21.27;;;22.90;99.90;;;;;;4977166;28;20907;-62
2023/08/16 12:17:51;;;;;;;26.53;21.03;;;23.00;99.90;;;;;;4978234;28;20549;-62
2023/08/16 12:20:18;;;;;;;23.00;20.70;;;23.10;99.90;;;;;;4966633;28;20769;-63
2023/08/16 12:22:45;;;;;;;24.03;21.20;;;22.70;99.90;;;;;;4959168;29;20469;-62
2023/08/16 12:25:13;;;;;;;23.07;20.67;;;22.60;1.00;;;;;;4959003;28;20728;-63
2023/08/16 12:27:41;;;;;;;25.37;20.97;;;22.50;99.90;;;;;;4957619;28;20467;-62
2023/08/16 12:30:10;;;;;;;23.70;21.33;;;22.40;1.00;;;;;;4958282;29;20565;-63
2023/08/16 12:32:37;;;;;;;23.63;21.27;;;22.40;1.00;;;;;;4957655;28;20948;-63